Time;durP1;ratioP1;P1;durP2;ratioP2;P2;SDS_P1;SDS_P2;PMS_P1;PMS_P2;Temp;Humidity;BMP_temperature;BMP_pressure;BME280_temperature;BME280_humidity;BME280_pressure;Samples;Min_cycle;Max_cycle;Signal;HPM_P1;HPM_P2
2021/01/30 00:00:58;;;;;;;11.97;6.27;;;8.30;98.30;;;;;;5137235;27;20438;-73
2021/01/30 00:03:25;;;;;;;9.33;5.60;;;8.30;98.30;;;;;;5137325;27;20783;-74
2021/01/30 00:05:51;;;;;;;13.03;6.30;;;8.30;98.10;;;;;;5136915;27;20470;-73
2021/01/30 00:08:17;;;;;;;9.67;5.10;;;8.30;98.00;;;;;;5137208;27;20492;-73
2021/01/30 00:10:44;;;;;;;10.50;5.00;;;8.30;98.30;;;;;;5137133;27;20441;-73
2021/01/30 00:13:11;;;;;;;9.67;5.50;;;8.30;98.30;;;;;;5137942;27;20477;-73
2021/01/30 00:15:38;;;;;;;7.97;5.10;;;8.20;98.30;;;;;;5137228;27;20462;-74
2021/01/30 00:18:06;;;;;;;6.27;4.57;;;8.20;98.40;;;;;;5136909;27;20524;-73
2021/01/30 00:20:35;;;;;;;15.33;5.37;;;8.20;98.40;;;;;;5136983;27;20427;-73
2021/01/30 00:23:02;;;;;;;10.50;5.53;;;8.10;98.50;;;;;;5136610;27;20458;-73
2021/01/30 00:25:31;;;;;;;10.00;4.73;;;8.10;98.50;;;;;;5136127;27;20473;-73
2021/01/30 00:27:57;;;;;;;8.57;5.70;;;8.20;98.80;;;;;;5136817;27;20445;-73
2021/01/30 00:30:27;;;;;;;8.60;5.63;;;8.30;98.60;;;;;;5136733;27;20796;-73
2021/01/30 00:32:53;;;;;;;8.17;5.63;;;8.30;98.30;;;;;;5136458;27;20993;-73
2021/01/30 00:35:21;;;;;;;22.23;6.60;;;8.30;98.30;;;;;;5136595;27;20473;-73
2021/01/30 00:37:47;;;;;;;7.60;5.70;;;8.30;98.20;;;;;;5136336;27;20892;-73
2021/01/30 00:40:13;;;;;;;7.40;5.20;;;8.30;98.50;;;;;;5136599;27;20422;-73
2021/01/30 00:42:40;;;;;;;11.87;5.53;;;8.20;98.50;;;;;;5136571;27;20426;-73
2021/01/30 00:45:11;;;;;;;11.00;5.87;;;8.20;98.50;;;;;;5136391;27;20531;-73
2021/01/30 00:47:38;;;;;;;13.87;6.90;;;8.20;98.50;;;;;;5136478;27;20430;-73
2021/01/30 00:50:06;;;;;;;18.90;6.83;;;8.10;98.80;;;;;;5136322;27;20438;-73
2021/01/30 00:52:32;;;;;;;12.83;7.67;;;8.10;99.00;;;;;;5136295;27;20458;-73
2021/01/30 00:54:58;;;;;;;14.60;8.30;;;8.10;99.30;;;;;;5136128;27;20438;-72
2021/01/30 00:57:24;;;;;;;14.60;9.27;;;8.10;99.60;;;;;;5135997;27;20861;-72
2021/01/30 00:59:51;;;;;;;12.30;8.83;;;8.10;99.60;;;;;;5136178;27;20453;-73
2021/01/30 01:02:17;;;;;;;11.00;8.40;;;8.10;99.70;;;;;;5136190;27;20775;-73
2021/01/30 01:04:44;;;;;;;15.40;9.60;;;8.10;99.70;;;;;;5135995;27;20429;-73
2021/01/30 01:07:13;;;;;;;23.03;14.37;;;8.10;99.80;;;;;;5135709;27;20767;-73
2021/01/30 01:09:39;;;;;;;28.00;14.93;;;8.20;99.80;;;;;;5135979;27;20491;-73
2021/01/30 01:12:05;;;;;;;18.50;10.57;;;8.20;99.90;;;;;;5135822;27;20452;-73
2021/01/30 01:14:32;;;;;;;15.73;11.43;;;8.20;99.50;;;;;;5135878;27;20441;-73
2021/01/30 01:16:58;;;;;;;10.93;8.70;;;8.30;99.20;;;;;;5135778;27;20457;-73
2021/01/30 01:19:24;;;;;;;13.43;8.60;;;8.30;98.60;;;;;;5135768;27;20437;-73
2021/01/30 01:21:52;;;;;;;12.90;8.23;;;8.20;98.10;;;;;;5135554;27;20454;-73
2021/01/30 01:24:19;;;;;;;27.90;16.77;;;8.20;97.90;;;;;;5135702;27;20425;-73
2021/01/30 01:26:46;;;;;;;24.03;12.90;;;8.20;97.70;;;;;;5135448;27;20820;-73
2021/01/30 01:29:14;;;;;;;15.83;10.73;;;8.20;97.60;;;;;;5135543;27;20445;-73
2021/01/30 01:31:40;;;;;;;15.60;10.30;;;8.20;97.70;;;;;;5135492;27;20438;-73
2021/01/30 01:34:06;;;;;;;13.53;9.77;;;8.20;97.60;;;;;;5135482;27;20820;-73
2021/01/30 01:36:32;;;;;;;26.80;16.40;;;8.10;97.70;;;;;;5135107;27;20465;-73
2021/01/30 01:39:00;;;;;;;31.47;18.40;;;8.10;97.50;;;;;;5135387;27;20442;-73
2021/01/30 01:41:26;;;;;;;23.40;13.50;;;8.10;97.30;;;;;;5135012;27;20958;-73
2021/01/30 01:43:52;;;;;;;18.50;11.30;;;8.10;96.80;;;;;;5135253;27;20449;-73
2021/01/30 01:46:25;;;;;;;10.37;6.77;;;8.10;96.40;;;;;;5135192;27;20573;-73
2021/01/30 01:49:04;;;;;;;21.03;13.30;;;8.00;96.10;;;;;;5134913;27;20487;-73
2021/01/30 01:51:38;;;;;;;21.23;13.10;;;8.00;96.20;;;;;;5135212;27;20426;-74
2021/01/30 01:54:10;;;;;;;13.70;9.10;;;8.00;96.00;;;;;;5135032;27;20462;-74
2021/01/30 01:56:40;;;;;;;11.93;8.13;;;8.00;95.90;;;;;;5134996;27;20477;-74
2021/01/30 01:59:10;;;;;;;16.20;9.07;;;7.90;96.00;;;;;;5135002;27;20441;-74
2021/01/30 02:01:37;;;;;;;21.20;15.90;;;8.00;96.20;;;;;;5134638;27;20955;-74
2021/01/30 02:04:07;;;;;;;19.23;15.50;;;7.90;96.10;;;;;;5134924;27;20446;-73
2021/01/30 02:06:38;;;;;;;17.93;15.80;;;7.80;95.40;;;;;;5134431;27;20474;-74
2021/01/30 02:09:08;;;;;;;26.20;16.27;;;7.80;95.70;;;;;;5135744;27;20426;-74
2021/01/30 02:11:35;;;;;;;21.53;15.40;;;7.80;95.00;;;;;;5134893;27;20441;-74
2021/01/30 02:14:03;;;;;;;25.20;15.73;;;7.70;94.40;;;;;;5134744;27;20815;-74
2021/01/30 02:16:43;;;;;;;24.63;14.60;;;7.60;94.50;;;;;;5134691;27;20462;-74
2021/01/30 02:19:53;;;;;;;24.10;16.03;;;7.50;94.40;;;;;;5134757;27;20426;-74
2021/01/30 02:23:00;;;;;;;22.23;15.70;;;7.50;94.60;;;;;;5134712;27;20426;-73
2021/01/30 02:26:00;;;;;;;19.60;14.23;;;7.50;94.40;;;;;;5134604;27;20506;-73
2021/01/30 02:28:35;;;;;;;24.17;15.50;;;7.40;94.20;;;;;;5134597;27;20426;-73
2021/01/30 02:31:31;;;;;;;24.53;15.23;;;7.30;94.00;;;;;;5134601;27;20421;-73
2021/01/30 02:34:13;;;;;;;26.03;16.30;;;7.20;94.20;;;;;;5134548;27;20514;-73
2021/01/30 02:36:50;;;;;;;22.60;15.40;;;7.20;94.40;;;;;;5134164;27;20470;-73
2021/01/30 02:39:20;;;;;;;22.00;15.10;;;7.10;94.80;;;;;;5134512;27;20422;-73
2021/01/30 02:41:51;;;;;;;25.27;16.20;;;7.10;94.60;;;;;;5134440;28;20426;-73
2021/01/30 02:44:19;;;;;;;24.73;15.07;;;7.10;94.50;;;;;;5134460;28;20414;-73
2021/01/30 02:46:50;;;;;;;19.90;17.03;;;7.10;94.30;;;;;;5134766;27;20466;-73
2021/01/30 02:49:25;;;;;;;24.23;15.07;;;7.10;94.40;;;;;;5138792;27;20445;-73
2021/01/30 02:52:02;;;;;;;20.10;15.37;;;7.10;94.60;;;;;;5138686;27;20475;-73
2021/01/30 02:54:32;;;;;;;23.03;15.10;;;7.10;94.30;;;;;;5138594;27;20465;-73
2021/01/30 02:56:59;;;;;;;19.30;15.43;;;7.10;94.10;;;;;;5138497;27;20457;-73
2021/01/30 02:59:28;;;;;;;20.93;15.10;;;7.10;94.00;;;;;;5138215;27;21011;-73
2021/01/30 03:01:54;;;;;;;19.90;14.80;;;7.10;93.60;;;;;;5138173;27;20950;-73
2021/01/30 03:04:24;;;;;;;18.67;13.47;;;7.10;93.70;;;;;;5138442;27;20437;-73
2021/01/30 03:07:07;;;;;;;16.30;11.97;;;7.00;93.50;;;;;;5137928;27;20472;-73
2021/01/30 03:09:39;;;;;;;17.20;11.10;;;7.00;93.50;;;;;;5138351;27;20422;-73
2021/01/30 03:12:12;;;;;;;15.80;13.03;;;7.00;93.30;;;;;;5138014;27;20470;-73
2021/01/30 03:14:48;;;;;;;14.80;12.30;;;6.90;92.90;;;;;;5138290;27;20464;-73
2021/01/30 03:17:15;;;;;;;15.13;11.60;;;6.90;93.10;;;;;;5138200;27;20433;-73
2021/01/30 03:19:41;;;;;;;14.00;12.40;;;6.90;93.30;;;;;;5138150;27;20465;-73
2021/01/30 03:22:12;;;;;;;15.60;10.87;;;6.80;92.70;;;;;;5138067;27;20474;-73
2021/01/30 03:24:44;;;;;;;14.37;11.40;;;6.70;92.50;;;;;;5138034;27;20426;-73
2021/01/30 03:27:15;;;;;;;13.50;11.80;;;6.60;92.10;;;;;;5137998;27;20509;-73
2021/01/30 03:29:41;;;;;;;15.43;11.13;;;6.60;92.30;;;;;;5137990;27;20422;-73
2021/01/30 03:32:08;;;;;;;13.10;11.17;;;6.60;92.50;;;;;;5137858;27;20438;-73
2021/01/30 03:34:34;;;;;;;12.53;10.20;;;6.60;92.60;;;;;;5137749;27;20481;-73
2021/01/30 03:37:00;;;;;;;11.63;10.43;;;6.60;92.70;;;;;;5137424;27;21029;-73
2021/01/30 03:39:27;;;;;;;11.57;9.87;;;6.60;92.70;;;;;;5137736;27;20448;-73
2021/01/30 03:41:53;;;;;;;13.67;10.63;;;6.70;92.60;;;;;;5137651;27;20449;-73
2021/01/30 03:44:19;;;;;;;12.70;11.40;;;6.70;92.50;;;;;;5137628;27;20444;-73
2021/01/30 03:46:46;;;;;;;12.20;9.83;;;6.70;92.00;;;;;;5137196;27;20453;-73
2021/01/30 03:49:12;;;;;;;9.67;8.77;;;6.70;91.80;;;;;;5137243;27;20954;-73
2021/01/30 03:51:38;;;;;;;11.33;10.00;;;6.60;91.50;;;;;;5137471;27;20449;-73
2021/01/30 03:54:04;;;;;;;10.47;9.43;;;6.50;91.60;;;;;;5137366;27;20529;-73
2021/01/30 03:56:31;;;;;;;10.13;9.03;;;6.50;91.70;;;;;;5137385;27;20442;-73
2021/01/30 03:58:58;;;;;;;11.03;9.87;;;6.50;91.60;;;;;;5137309;27;20442;-73
2021/01/30 04:01:31;;;;;;;10.47;9.37;;;6.50;91.80;;;;;;5137332;27;20449;-73
2021/01/30 04:03:57;;;;;;;11.77;10.67;;;6.40;91.10;;;;;;5136994;27;20895;-73
2021/01/30 04:06:23;;;;;;;11.60;10.50;;;6.40;91.30;;;;;;5136869;27;20501;-73
2021/01/30 04:08:49;;;;;;;13.57;11.17;;;6.40;91.50;;;;;;5137204;27;20472;-73
2021/01/30 04:11:16;;;;;;;12.33;11.03;;;6.40;91.80;;;;;;5136830;27;20446;-73
2021/01/30 04:13:43;;;;;;;12.73;11.53;;;6.40;91.90;;;;;;5136718;27;20995;-73
2021/01/30 04:16:09;;;;;;;13.53;11.73;;;6.40;91.90;;;;;;5136981;27;20458;-74
2021/01/30 04:18:35;;;;;;;15.67;13.87;;;6.30;91.80;;;;;;5137037;27;20442;-73
2021/01/30 04:21:01;;;;;;;15.40;13.17;;;6.30;91.70;;;;;;5136664;27;20935;-73
2021/01/30 04:23:27;;;;;;;18.10;15.23;;;6.30;91.80;;;;;;5136931;27;20445;-73
2021/01/30 04:25:53;;;;;;;17.47;14.40;;;6.30;91.60;;;;;;5136785;27;20461;-73
2021/01/30 04:28:20;;;;;;;19.40;15.90;;;6.30;91.40;;;;;;5136497;27;20935;-74
2021/01/30 04:30:47;;;;;;;19.30;14.67;;;6.30;91.60;;;;;;5136768;27;20445;-73
2021/01/30 04:33:13;;;;;;;20.97;16.60;;;6.30;91.60;;;;;;5136349;27;20477;-73
2021/01/30 04:35:39;;;;;;;21.77;16.40;;;6.20;91.60;;;;;;5136603;27;20465;-73
2021/01/30 04:38:06;;;;;;;26.10;19.30;;;6.20;91.70;;;;;;5136626;27;20444;-73
2021/01/30 04:40:35;;;;;;;22.90;18.13;;;6.10;92.00;;;;;;5136588;27;20441;-73
2021/01/30 04:43:13;;;;;;;22.77;17.77;;;6.10;91.80;;;;;;5136524;27;20441;-73
2021/01/30 04:46:00;;;;;;;23.60;19.43;;;6.00;92.10;;;;;;5136448;27;20514;-73
2021/01/30 04:48:54;;;;;;;27.27;20.27;;;6.00;92.20;;;;;;5136453;27;20518;-73
2021/01/30 04:51:28;;;;;;;27.50;21.27;;;6.00;91.70;;;;;;5136049;27;20904;-73
2021/01/30 04:54:20;;;;;;;25.10;20.50;;;6.00;91.30;;;;;;5136276;27;20457;-73
2021/01/30 04:56:59;;;;;;;27.60;22.77;;;5.90;91.40;;;;;;5136225;27;20466;-73
2021/01/30 04:59:37;;;;;;;30.93;23.93;;;5.90;91.20;;;;;;5136237;27;20475;-73
2021/01/30 05:02:07;;;;;;;29.63;23.97;;;5.80;91.50;;;;;;5136153;27;20441;-73
2021/01/30 05:04:37;;;;;;;33.77;25.53;;;5.70;91.80;;;;;;5136151;27;20450;-73
2021/01/30 05:07:14;;;;;;;33.80;25.87;;;5.70;92.00;;;;;;5135576;27;20817;-73
2021/01/30 05:09:43;;;;;;;34.57;25.53;;;5.80;91.90;;;;;;5135148;27;20919;-73
2021/01/30 05:12:17;;;;;;;32.67;24.33;;;5.80;91.90;;;;;;5135898;27;20446;-73
2021/01/30 05:14:49;;;;;;;33.80;25.30;;;5.80;91.70;;;;;;5135519;27;20458;-73
2021/01/30 05:17:23;;;;;;;32.27;24.63;;;5.90;91.50;;;;;;5135866;27;20426;-74
2021/01/30 05:19:55;;;;;;;33.13;24.33;;;5.90;91.20;;;;;;5135481;27;20900;-73
2021/01/30 05:22:32;;;;;;;38.43;25.03;;;5.90;91.30;;;;;;5135785;27;20570;-73
2021/01/30 05:24:58;;;;;;;36.60;26.40;;;5.90;91.30;;;;;;5135612;27;20426;-73
2021/01/30 05:27:45;;;;;;;36.57;27.53;;;5.80;91.80;;;;;;5135346;27;20438;-73
2021/01/30 05:30:16;;;;;;;37.47;25.00;;;5.80;92.10;;;;;;5135683;27;20422;-73
2021/01/30 05:33:04;;;;;;;36.53;24.60;;;5.80;92.10;;;;;;5135245;27;20994;-73
2021/01/30 05:35:37;;;;;;;30.17;22.47;;;5.80;91.70;;;;;;5135449;27;20466;-73
2021/01/30 05:38:09;;;;;;;28.57;20.47;;;5.70;92.10;;;;;;5135182;27;20931;-73
2021/01/30 05:40:42;;;;;;;21.70;17.60;;;5.70;91.90;;;;;;5135115;27;20426;-73
2021/01/30 05:43:19;;;;;;;23.70;19.17;;;5.70;91.70;;;;;;5135051;27;20788;-73
2021/01/30 05:45:48;;;;;;;23.53;19.83;;;5.60;91.40;;;;;;5135255;27;20462;-73
2021/01/30 05:48:19;;;;;;;25.20;18.17;;;5.60;91.80;;;;;;5135240;27;20438;-73
2021/01/30 05:50:51;;;;;;;24.13;18.87;;;5.60;91.50;;;;;;5135180;27;20456;-74
2021/01/30 05:53:21;;;;;;;22.20;17.07;;;5.60;91.70;;;;;;5135157;27;20465;-73
2021/01/30 05:55:47;;;;;;;20.27;17.77;;;5.60;91.60;;;;;;5135041;27;20464;-73
2021/01/30 05:58:16;;;;;;;21.53;19.27;;;5.40;90.70;;;;;;5135139;27;20808;-73
2021/01/30 06:00:42;;;;;;;22.70;19.77;;;5.50;90.90;;;;;;5135056;27;20472;-73
2021/01/30 06:03:11;;;;;;;21.40;17.63;;;5.40;90.80;;;;;;5134944;27;20816;-73
2021/01/30 06:05:41;;;;;;;22.93;20.00;;;5.40;90.80;;;;;;5134586;27;20473;-73
2021/01/30 06:08:10;;;;;;;25.93;21.90;;;5.40;90.90;;;;;;5134581;27;20928;-73
2021/01/30 06:10:38;;;;;;;23.47;19.67;;;5.40;91.20;;;;;;5134859;27;20579;-73
2021/01/30 06:13:11;;;;;;;24.53;19.40;;;5.40;91.40;;;;;;5134733;27;20888;-73
2021/01/30 06:15:39;;;;;;;23.10;20.30;;;5.40;91.60;;;;;;5134736;27;20477;-73
2021/01/30 06:18:25;;;;;;;20.40;18.20;;;5.40;91.40;;;;;;5134799;27;20438;-73
2021/01/30 06:21:01;;;;;;;21.97;19.60;;;5.40;91.00;;;;;;5134556;27;20430;-74
2021/01/30 06:23:28;;;;;;;22.10;19.50;;;5.40;90.80;;;;;;5134242;27;20448;-74
2021/01/30 06:26:09;;;;;;;24.17;19.63;;;5.40;91.00;;;;;;5134861;27;20470;-74
2021/01/30 06:28:39;;;;;;;22.70;19.37;;;5.40;91.50;;;;;;5134681;27;20422;-74
2021/01/30 06:31:11;;;;;;;22.10;19.00;;;5.40;91.60;;;;;;5134606;27;20445;-73
2021/01/30 06:33:46;;;;;;;21.53;19.23;;;5.40;91.80;;;;;;5135446;27;20470;-74
2021/01/30 06:36:17;;;;;;;23.47;20.40;;;5.40;91.60;;;;;;5134189;27;20827;-74
2021/01/30 06:38:46;;;;;;;23.20;20.23;;;5.50;91.50;;;;;;5134546;27;20426;-74
2021/01/30 06:41:21;;;;;;;22.03;19.10;;;5.40;91.70;;;;;;5134474;27;20494;-74
2021/01/30 06:43:53;;;;;;;24.23;20.63;;;5.40;91.30;;;;;;5134433;28;20490;-74
2021/01/30 06:46:24;;;;;;;21.83;18.90;;;5.40;91.90;;;;;;5134368;28;20464;-74
2021/01/30 06:48:51;;;;;;;20.63;18.40;;;5.40;91.20;;;;;;5134088;28;20896;-74
2021/01/30 06:51:27;;;;;;;19.93;17.83;;;5.40;91.00;;;;;;5134014;28;20819;-73
2021/01/30 06:53:55;;;;;;;21.67;19.13;;;5.40;91.00;;;;;;5133959;28;20870;-74
2021/01/30 06:56:25;;;;;;;21.47;19.20;;;5.40;91.30;;;;;;5134230;28;20522;-74
2021/01/30 06:59:01;;;;;;;22.83;19.33;;;5.40;91.60;;;;;;5135451;28;20534;-74
2021/01/30 07:01:40;;;;;;;23.70;20.60;;;5.40;91.40;;;;;;5134219;28;20895;-74
2021/01/30 07:04:23;;;;;;;22.80;19.13;;;5.30;91.00;;;;;;5134289;28;20458;-74
2021/01/30 07:07:00;;;;;;;26.20;21.20;;;5.30;91.00;;;;;;5133835;28;20470;-74
2021/01/30 07:09:42;;;;;;;25.47;21.37;;;5.30;91.60;;;;;;5134291;28;20487;-74
2021/01/30 07:12:14;;;;;;;25.50;21.13;;;5.30;91.70;;;;;;5134306;28;20422;-74
2021/01/30 07:14:58;;;;;;;25.37;21.17;;;5.30;91.80;;;;;;5134139;28;20465;-74
2021/01/30 07:17:48;;;;;;;24.67;20.70;;;5.30;92.00;;;;;;5133862;28;20429;-74
2021/01/30 07:20:25;;;;;;;23.70;19.90;;;5.20;92.10;;;;;;5134326;28;20426;-74
2021/01/30 07:22:58;;;;;;;22.03;19.40;;;5.20;92.10;;;;;;5134201;28;20488;-73
2021/01/30 07:25:28;;;;;;;24.40;21.20;;;5.30;92.20;;;;;;5134067;28;20468;-74
2021/01/30 07:28:02;;;;;;;22.17;17.73;;;5.40;91.90;;;;;;5134008;28;20445;-73
2021/01/30 07:30:37;;;;;;;22.50;18.07;;;5.40;92.00;;;;;;5134063;28;20433;-73
2021/01/30 07:33:10;;;;;;;21.33;18.53;;;5.40;91.60;;;;;;5134775;27;20452;-73
2021/01/30 07:35:42;;;;;;;20.63;17.77;;;5.30;91.30;;;;;;5137461;27;20468;-73
2021/01/30 07:38:17;;;;;;;21.83;18.57;;;5.10;91.00;;;;;;5137804;27;20425;-73
2021/01/30 07:40:55;;;;;;;23.60;19.37;;;5.10;91.40;;;;;;5137481;27;20482;-73
2021/01/30 07:43:25;;;;;;;24.40;20.30;;;5.20;91.40;;;;;;5137722;27;20430;-74
2021/01/30 07:46:05;;;;;;;23.30;18.80;;;5.20;91.10;;;;;;5137583;27;20466;-73
2021/01/30 07:48:34;;;;;;;24.33;19.10;;;5.20;91.10;;;;;;5137685;27;20426;-73
2021/01/30 07:51:08;;;;;;;28.03;22.20;;;5.20;90.90;;;;;;5137227;27;20515;-73
2021/01/30 07:53:35;;;;;;;27.17;21.73;;;5.20;91.20;;;;;;5137158;27;20805;-74
2021/01/30 07:56:12;;;;;;;28.67;21.70;;;5.20;91.20;;;;;;5137338;27;20469;-74
2021/01/30 07:58:56;;;;;;;28.27;21.80;;;5.20;91.40;;;;;;5137470;27;20418;-74
2021/01/30 08:01:43;;;;;;;25.07;20.00;;;5.20;91.60;;;;;;5137448;27;20432;-74
2021/01/30 08:04:57;;;;;;;25.70;20.70;;;5.20;91.40;;;;;;5137357;27;20456;-74
2021/01/30 08:07:34;;;;;;;25.60;20.20;;;5.20;91.60;;;;;;5137239;27;20456;-74
2021/01/30 08:10:04;;;;;;;24.73;18.90;;;5.20;91.80;;;;;;5137213;27;20474;-74
2021/01/30 08:12:47;;;;;;;22.73;20.17;;;5.20;91.90;;;;;;5137175;27;20471;-74
2021/01/30 08:15:21;;;;;;;23.60;19.70;;;5.20;91.80;;;;;;5137048;27;20450;-74
2021/01/30 08:17:59;;;;;;;24.60;20.87;;;5.30;91.90;;;;;;5137009;27;20471;-74
2021/01/30 08:20:37;;;;;;;23.00;20.50;;;5.30;92.00;;;;;;5136977;27;20822;-75
2021/01/30 08:23:11;;;;;;;25.10;20.93;;;5.30;91.70;;;;;;5137121;27;20422;-73
2021/01/30 08:25:44;;;;;;;25.60;20.03;;;5.20;91.70;;;;;;5136883;27;20458;-74
2021/01/30 08:28:16;;;;;;;23.77;19.93;;;5.30;91.70;;;;;;5136672;27;20768;-72
2021/01/30 08:30:44;;;;;;;21.57;18.37;;;5.20;91.40;;;;;;5136742;27;20460;-72
2021/01/30 08:33:11;;;;;;;20.60;17.13;;;5.30;91.30;;;;;;5136674;27;20509;-72
2021/01/30 08:35:47;;;;;;;21.60;17.20;;;5.20;91.40;;;;;;5136591;27;20458;-72
2021/01/30 08:38:38;;;;;;;19.70;16.20;;;5.20;91.30;;;;;;5136339;27;20826;-72
2021/01/30 08:41:40;;;;;;;18.13;16.20;;;5.20;91.50;;;;;;5136630;27;20418;-72
2021/01/30 08:44:06;;;;;;;18.93;15.40;;;5.20;91.50;;;;;;5131661;27;20507;-73
2021/01/30 08:46:37;;;;;;;19.10;16.77;;;5.20;91.90;;;;;;5135849;27;20462;-72
2021/01/30 08:49:20;;;;;;;17.40;15.27;;;5.20;91.70;;;;;;5137091;27;20483;-72
2021/01/30 08:51:50;;;;;;;17.80;15.90;;;5.30;91.50;;;;;;5136453;27;20502;-71
2021/01/30 08:54:31;;;;;;;20.30;15.90;;;5.20;91.40;;;;;;5136086;27;20480;-72
2021/01/30 08:56:59;;;;;;;15.00;13.37;;;5.10;91.50;;;;;;5136048;27;20510;-72
2021/01/30 08:59:48;;;;;;;16.07;13.33;;;5.20;91.40;;;;;;5136200;27;20441;-72
2021/01/30 09:02:50;;;;;;;15.80;13.60;;;5.20;90.80;;;;;;5136241;27;20430;-72
2021/01/30 09:05:36;;;;;;;14.53;12.77;;;5.20;90.90;;;;;;5135440;27;20469;-72
2021/01/30 09:08:36;;;;;;;14.80;13.20;;;5.30;90.80;;;;;;5135910;27;20453;-73
2021/01/30 09:11:35;;;;;;;13.87;11.87;;;5.30;90.60;;;;;;5136771;27;20454;-73
2021/01/30 09:14:05;;;;;;;12.83;11.53;;;5.30;90.40;;;;;;5135818;27;20494;-72
2021/01/30 09:16:41;;;;;;;13.47;12.10;;;5.20;90.60;;;;;;5135754;27;20457;-72
2021/01/30 09:19:17;;;;;;;12.53;11.27;;;5.20;90.20;;;;;;5136076;27;20429;-72
2021/01/30 09:21:56;;;;;;;12.83;11.60;;;5.20;90.20;;;;;;5135566;27;20784;-72
2021/01/30 09:25:02;;;;;;;12.67;11.37;;;5.30;90.30;;;;;;5135468;27;20482;-72
2021/01/30 09:27:30;;;;;;;12.07;10.50;;;5.30;90.50;;;;;;5135450;27;20442;-72
2021/01/30 09:30:03;;;;;;;12.40;10.60;;;5.40;90.40;;;;;;5135050;27;20936;-72
2021/01/30 09:32:36;;;;;;;11.10;10.07;;;5.40;90.10;;;;;;5135104;27;20903;-72
2021/01/30 09:35:06;;;;;;;11.60;10.17;;;5.50;90.10;;;;;;5135266;27;20462;-72
2021/01/30 09:37:38;;;;;;;11.17;10.10;;;5.60;89.80;;;;;;5135041;27;20895;-73
2021/01/30 09:40:08;;;;;;;11.07;10.07;;;5.60;89.80;;;;;;5134932;27;20791;-72
2021/01/30 09:42:34;;;;;;;11.17;10.07;;;5.70;89.20;;;;;;5135218;27;20429;-72
2021/01/30 09:45:05;;;;;;;10.63;9.63;;;5.70;88.80;;;;;;5135122;27;20495;-72
2021/01/30 09:47:33;;;;;;;9.83;9.03;;;5.80;88.00;;;;;;5135125;27;20422;-73
2021/01/30 09:50:04;;;;;;;10.67;9.70;;;5.90;87.90;;;;;;5135018;27;20437;-73
2021/01/30 09:52:30;;;;;;;10.43;9.43;;;5.90;87.10;;;;;;5134797;27;20437;-72
2021/01/30 09:55:01;;;;;;;10.77;9.73;;;5.90;87.60;;;;;;5134921;27;20481;-71
2021/01/30 09:57:28;;;;;;;11.07;9.97;;;5.90;87.80;;;;;;5134956;27;20449;-74
2021/01/30 09:59:56;;;;;;;9.43;8.37;;;6.00;87.40;;;;;;5135049;27;20422;-71
2021/01/30 10:02:24;;;;;;;10.47;9.47;;;6.00;87.10;;;;;;5134719;27;20926;-71
2021/01/30 10:05:02;;;;;;;12.00;10.27;;;6.10;87.90;;;;;;5134781;27;20423;-71
2021/01/30 10:07:28;;;;;;;9.33;8.50;;;6.10;87.20;;;;;;5134947;27;20433;-71
2021/01/30 10:09:55;;;;;;;9.60;8.80;;;6.20;86.60;;;;;;5135002;27;20471;-71
2021/01/30 10:12:23;;;;;;;9.87;8.97;;;6.10;86.20;;;;;;5134508;27;20918;-71
2021/01/30 10:14:53;;;;;;;9.40;8.60;;;6.10;86.50;;;;;;5134794;27;20462;-72
2021/01/30 10:17:27;;;;;;;9.33;8.53;;;6.20;86.10;;;;;;5134325;27;20786;-72
2021/01/30 10:19:58;;;;;;;10.57;9.63;;;6.30;86.10;;;;;;5134588;27;20479;-72
2021/01/30 10:22:34;;;;;;;9.63;8.73;;;6.30;85.80;;;;;;5134411;27;20903;-72
2021/01/30 10:25:04;;;;;;;10.03;9.13;;;6.50;85.30;;;;;;5134594;27;20423;-72
2021/01/30 10:27:31;;;;;;;9.50;8.70;;;6.60;84.90;;;;;;5134983;27;20445;-72
2021/01/30 10:29:59;;;;;;;9.53;8.63;;;6.70;83.90;;;;;;5134327;27;20931;-72
2021/01/30 10:32:36;;;;;;;9.47;8.57;;;6.80;83.20;;;;;;5134596;27;20442;-72
2021/01/30 10:35:06;;;;;;;8.70;7.90;;;6.80;82.10;;;;;;5134197;27;20562;-73
2021/01/30 10:37:39;;;;;;;8.53;7.83;;;6.80;82.20;;;;;;5135026;27;20438;-73
2021/01/30 10:40:12;;;;;;;8.23;7.53;;;6.90;81.90;;;;;;5135063;27;20433;-73
2021/01/30 10:42:39;;;;;;;7.83;7.23;;;6.90;82.00;;;;;;5135546;27;20451;-72
2021/01/30 10:45:16;;;;;;;8.60;7.80;;;7.00;82.10;;;;;;5134083;28;20900;-72
2021/01/30 10:47:43;;;;;;;9.17;8.27;;;7.10;82.00;;;;;;5135353;28;20433;-71
2021/01/30 10:50:19;;;;;;;7.97;7.27;;;7.10;81.80;;;;;;5135252;28;20490;-72
2021/01/30 10:52:46;;;;;;;7.87;7.17;;;7.20;80.70;;;;;;5134982;28;20422;-72
2021/01/30 10:55:27;;;;;;;8.80;8.00;;;7.10;78.80;;;;;;5134165;28;20481;-72
2021/01/30 10:57:54;;;;;;;7.53;6.93;;;7.10;79.50;;;;;;5136204;28;20479;-72
2021/01/30 11:00:28;;;;;;;7.90;7.20;;;7.10;80.20;;;;;;5134554;28;20851;-73
2021/01/30 11:02:55;;;;;;;8.17;7.33;;;7.00;79.90;;;;;;5134257;28;20433;-72
2021/01/30 11:05:29;;;;;;;7.53;6.87;;;7.00;80.50;;;;;;5133981;28;20482;-72
2021/01/30 11:08:01;;;;;;;7.30;6.60;;;7.00;80.80;;;;;;5134975;27;20465;-72
2021/01/30 11:10:43;;;;;;;7.00;5.90;;;7.00;80.50;;;;;;5138071;27;20423;-72
2021/01/30 11:13:14;;;;;;;6.87;6.27;;;7.10;80.90;;;;;;5135390;27;20450;-72
2021/01/30 11:15:43;;;;;;;7.07;6.47;;;7.00;80.50;;;;;;5138551;27;20461;-73
2021/01/30 11:18:31;;;;;;;7.07;6.47;;;7.00;80.00;;;;;;5138016;27;20433;-72
2021/01/30 11:20:59;;;;;;;7.77;7.07;;;7.00;80.20;;;;;;5138266;27;20422;-71
2021/01/30 11:23:41;;;;;;;7.27;6.57;;;7.00;80.10;;;;;;5137860;27;20896;-71
2021/01/30 11:26:21;;;;;;;7.63;6.93;;;7.00;79.70;;;;;;5138428;27;20836;-71
2021/01/30 11:28:48;;;;;;;6.67;6.07;;;7.10;79.30;;;;;;5138138;27;20508;-72
2021/01/30 11:31:15;;;;;;;6.53;5.97;;;7.10;80.10;;;;;;5137411;27;20899;-72
2021/01/30 11:33:43;;;;;;;6.50;5.90;;;7.10;80.10;;;;;;5137834;27;20503;-72
2021/01/30 11:36:15;;;;;;;6.77;6.17;;;7.20;80.00;;;;;;5137836;27;20460;-72
2021/01/30 11:38:42;;;;;;;7.27;6.30;;;7.20;80.70;;;;;;5137956;27;20458;-72
2021/01/30 11:41:09;;;;;;;6.57;5.97;;;7.30;79.60;;;;;;5137841;27;20438;-72
2021/01/30 11:43:35;;;;;;;6.73;5.93;;;7.20;77.20;;;;;;5137722;27;20438;-71
2021/01/30 11:46:01;;;;;;;6.27;5.77;;;7.20;77.50;;;;;;5137771;27;20470;-72
2021/01/30 11:48:28;;;;;;;6.80;6.20;;;7.30;78.70;;;;;;5137646;27;20442;-72
2021/01/30 11:50:55;;;;;;;6.90;6.30;;;7.50;78.80;;;;;;5137610;27;20445;-74
2021/01/30 11:53:23;;;;;;;6.13;5.63;;;7.40;76.20;;;;;;5137125;27;20963;-72
2021/01/30 11:55:50;;;;;;;5.93;5.43;;;7.50;77.50;;;;;;5137422;27;20461;-72
2021/01/30 11:58:18;;;;;;;7.10;6.50;;;7.60;76.60;;;;;;5137475;27;20433;-72
2021/01/30 12:00:44;;;;;;;6.37;5.77;;;7.70;77.30;;;;;;5137096;27;20900;-72
2021/01/30 12:03:20;;;;;;;6.10;5.60;;;7.80;77.80;;;;;;5137337;27;20427;-71
2021/01/30 12:05:47;;;;;;;5.83;5.43;;;7.90;77.20;;;;;;5136963;27;20469;-71
2021/01/30 12:08:14;;;;;;;6.20;5.60;;;8.00;76.60;;;;;;5136916;27;20446;-72
2021/01/30 12:10:40;;;;;;;5.80;5.23;;;8.00;76.10;;;;;;5137163;27;20441;-73
2021/01/30 12:13:06;;;;;;;6.20;5.70;;;8.00;76.30;;;;;;5137185;27;20464;-73
2021/01/30 12:15:33;;;;;;;6.33;5.83;;;7.90;75.90;;;;;;5137078;27;20521;-73
2021/01/30 12:17:59;;;;;;;6.00;5.50;;;7.90;75.50;;;;;;5137180;27;20852;-73
2021/01/30 12:20:28;;;;;;;6.70;6.10;;;7.90;76.10;;;;;;5135704;27;20433;-74
2021/01/30 12:22:57;;;;;;;7.13;6.53;;;7.90;76.30;;;;;;5136930;27;20422;-72
2021/01/30 12:25:24;;;;;;;7.03;6.43;;;7.90;76.30;;;;;;5136790;27;20454;-72
2021/01/30 12:27:52;;;;;;;6.40;5.90;;;8.00;76.30;;;;;;5136850;27;20445;-72
2021/01/30 12:30:21;;;;;;;5.60;5.20;;;8.10;76.40;;;;;;5136906;27;20429;-73
2021/01/30 12:32:47;;;;;;;6.40;5.90;;;8.20;75.90;;;;;;5136470;27;20442;-73
2021/01/30 12:35:15;;;;;;;6.70;6.10;;;8.30;75.70;;;;;;5136535;27;20481;-72
2021/01/30 12:37:41;;;;;;;6.47;5.97;;;8.50;75.80;;;;;;5136638;27;20445;-73
2021/01/30 12:40:08;;;;;;;6.33;5.73;;;8.70;75.50;;;;;;5136428;27;20900;-71
2021/01/30 12:42:35;;;;;;;6.37;5.87;;;8.80;74.50;;;;;;5136632;27;20446;-72
2021/01/30 12:45:01;;;;;;;7.03;6.33;;;9.00;74.10;;;;;;5136481;27;20446;-72
2021/01/30 12:47:29;;;;;;;5.70;5.20;;;9.20;73.20;;;;;;5136502;27;20434;-71
2021/01/30 12:49:56;;;;;;;5.77;5.27;;;9.30;72.90;;;;;;5136466;27;20434;-70
2021/01/30 12:52:22;;;;;;;5.83;5.33;;;9.40;72.50;;;;;;5136389;27;20469;-75
2021/01/30 12:54:48;;;;;;;5.47;4.97;;;9.40;71.70;;;;;;5136253;27;20477;-71
2021/01/30 12:57:15;;;;;;;6.43;6.00;;;9.40;71.50;;;;;;5136281;27;20466;-70
2021/01/30 12:59:42;;;;;;;5.63;5.10;;;9.40;71.50;;;;;;5136182;27;20414;-71
2021/01/30 13:02:08;;;;;;;6.30;5.67;;;9.40;71.90;;;;;;5135860;27;20449;-71
2021/01/30 13:04:34;;;;;;;6.23;5.73;;;9.30;68.10;;;;;;5136288;27;20481;-72
2021/01/30 13:07:00;;;;;;;5.97;5.50;;;9.10;68.70;;;;;;5135808;27;20473;-72